Clyde, Michigan
Current Conditions -  °F | °C
As of 2:16 PM on Saturday 25 Oct 2014 (Local Time) from KPHN Reporting Station
Scattered Clouds Scattered Clouds  
Wind Chill: 17°   Ceiling: Unl
Heat Index: 17°   Visibility: 10mi
Dew Point: 10°   Wind: 13mph
Humidity: 63%   Direction: 250°WSW
Pressure: 29.72"   Gusts: 18mph
Location:  43.0355°N, 82.5759°W
Report Text: KPHN 251816Z AUTO 25011G16KT 10SM SCT033 SCT039 17/10 A2972 RMK AO2
Loading
Personal Weather Stations






























Interactive Weather Map
Tropical Storm Tracking
New forecast layout! Learn more

10-Day Weather Forecast

Advertisements
Track Severe Weather on mobile